sensor_id;sensor_type;location;lat;lon;timestamp;temperature;humidity
20845;DHT22;10583;49.084;8.646;2023-04-06T00:00:00;0.10;99.90
20845;DHT22;10583;49.084;8.646;2023-04-06T00:02:26;0.10;99.90
20845;DHT22;10583;49.084;8.646;2023-04-06T00:04:54;0.10;99.90
20845;DHT22;10583;49.084;8.646;2023-04-06T00:07:21;0.10;99.90
20845;DHT22;10583;49.084;8.646;2023-04-06T00:09:48;0.00;99.90
20845;DHT22;10583;49.084;8.646;2023-04-06T00:12:15;0.00;99.90
20845;DHT22;10583;49.084;8.646;2023-04-06T00:14:42;-0.10;99.90
20845;DHT22;10583;49.084;8.646;2023-04-06T00:17:08;-0.10;99.90
20845;DHT22;10583;49.084;8.646;2023-04-06T00:19:35;-0.10;99.90
20845;DHT22;10583;49.084;8.646;2023-04-06T00:22:03;0.00;99.90
20845;DHT22;10583;49.084;8.646;2023-04-06T00:24:30;0.00;99.90
20845;DHT22;10583;49.084;8.646;2023-04-06T00:26:57;0.10;99.90
20845;DHT22;10583;49.084;8.646;2023-04-06T00:29:23;0.10;99.90
20845;DHT22;10583;49.084;8.646;2023-04-06T00:31:50;0.10;99.90
20845;DHT22;10583;49.084;8.646;2023-04-06T00:34:17;0.10;99.90
20845;DHT22;10583;49.084;8.646;2023-04-06T00:36:43;0.00;99.90
20845;DHT22;10583;49.084;8.646;2023-04-06T00:39:11;-0.10;99.90
20845;DHT22;10583;49.084;8.646;2023-04-06T00:41:39;-0.10;99.90
20845;DHT22;10583;49.084;8.646;2023-04-06T00:44:07;-0.10;99.90
20845;DHT22;10583;49.084;8.646;2023-04-06T00:46:34;-0.10;99.90
20845;DHT22;10583;49.084;8.646;2023-04-06T00:49:02;-0.10;99.90
20845;DHT22;10583;49.084;8.646;2023-04-06T00:51:28;-0.10;99.90
20845;DHT22;10583;49.084;8.646;2023-04-06T00:53:55;-0.20;99.90
20845;DHT22;10583;49.084;8.646;2023-04-06T00:56:23;-0.20;99.90
20845;DHT22;10583;49.084;8.646;2023-04-06T00:58:51;-0.30;99.90
20845;DHT22;10583;49.084;8.646;2023-04-06T01:01:18;-0.50;99.90
20845;DHT22;10583;49.084;8.646;2023-04-06T01:03:45;-0.50;99.90
20845;DHT22;10583;49.084;8.646;2023-04-06T01:06:14;-0.50;99.90
20845;DHT22;10583;49.084;8.646;2023-04-06T01:08:41;-0.50;99.90
20845;DHT22;10583;49.084;8.646;2023-04-06T01:11:08;-0.60;99.90
20845;DHT22;10583;49.084;8.646;2023-04-06T01:13:36;-0.70;99.90
20845;DHT22;10583;49.084;8.646;2023-04-06T01:16:04;-0.70;99.90
20845;DHT22;10583;49.084;8.646;2023-04-06T01:18:31;-0.60;99.90
20845;DHT22;10583;49.084;8.646;2023-04-06T01:20:57;-0.60;99.90
20845;DHT22;10583;49.084;8.646;2023-04-06T01:23:26;-0.60;99.90
20845;DHT22;10583;49.084;8.646;2023-04-06T01:25:53;-0.60;99.90
20845;DHT22;10583;49.084;8.646;2023-04-06T01:28:19;-0.50;99.90
20845;DHT22;10583;49.084;8.646;2023-04-06T01:30:46;-0.50;99.90
20845;DHT22;10583;49.084;8.646;2023-04-06T01:33:13;-0.50;99.90
20845;DHT22;10583;49.084;8.646;2023-04-06T01:35:39;-0.60;99.90
20845;DHT22;10583;49.084;8.646;2023-04-06T01:38:06;-0.60;99.90
20845;DHT22;10583;49.084;8.646;2023-04-06T01:40:34;-0.70;99.90
20845;DHT22;10583;49.084;8.646;2023-04-06T01:43:01;-0.60;99.90
20845;DHT22;10583;49.084;8.646;2023-04-06T01:45:28;-0.60;99.90
20845;DHT22;10583;49.084;8.646;2023-04-06T01:47:54;-0.70;99.90
20845;DHT22;10583;49.084;8.646;2023-04-06T01:50:21;-0.70;99.90
20845;DHT22;10583;49.084;8.646;2023-04-06T01:52:48;-0.60;99.90
20845;DHT22;10583;49.084;8.646;2023-04-06T01:55:15;-0.60;99.90
20845;DHT22;10583;49.084;8.646;2023-04-06T01:57:43;-0.60;99.90
20845;DHT22;10583;49.084;8.646;2023-04-06T02:00:11;-0.70;99.90
20845;DHT22;10583;49.084;8.646;2023-04-06T02:02:38;-0.70;99.90
20845;DHT22;10583;49.084;8.646;2023-04-06T02:05:05;-0.70;99.90
20845;DHT22;10583;49.084;8.646;2023-04-06T02:07:32;-0.60;99.90
20845;DHT22;10583;49.084;8.646;2023-04-06T02:09:59;-0.50;99.90
20845;DHT22;10583;49.084;8.646;2023-04-06T02:12:25;-0.40;99.90
20845;DHT22;10583;49.084;8.646;2023-04-06T02:14:53;-0.40;99.90
20845;DHT22;10583;49.084;8.646;2023-04-06T02:17:20;-0.40;99.90
20845;DHT22;10583;49.084;8.646;2023-04-06T02:19:47;-0.50;99.90
20845;DHT22;10583;49.084;8.646;2023-04-06T02:22:14;-0.40;99.90
20845;DHT22;10583;49.084;8.646;2023-04-06T02:24:41;-0.30;99.90
20845;DHT22;10583;49.084;8.646;2023-04-06T02:27:07;-0.30;99.90
20845;DHT22;10583;49.084;8.646;2023-04-06T02:29:34;-0.30;99.90
20845;DHT22;10583;49.084;8.646;2023-04-06T02:32:02;-0.30;99.90
20845;DHT22;10583;49.084;8.646;2023-04-06T02:34:30;-0.40;99.90
20845;DHT22;10583;49.084;8.646;2023-04-06T02:36:56;-0.40;99.90
20845;DHT22;10583;49.084;8.646;2023-04-06T02:39:23;-0.40;99.90
20845;DHT22;10583;49.084;8.646;2023-04-06T02:41:50;-0.40;99.90
20845;DHT22;10583;49.084;8.646;2023-04-06T02:44:16;-0.40;99.90
20845;DHT22;10583;49.084;8.646;2023-04-06T02:46:43;-0.40;99.90
20845;DHT22;10583;49.084;8.646;2023-04-06T02:49:11;-0.40;99.90
20845;DHT22;10583;49.084;8.646;2023-04-06T02:51:38;-0.40;99.90
20845;DHT22;10583;49.084;8.646;2023-04-06T02:54:04;-0.50;99.90
20845;DHT22;10583;49.084;8.646;2023-04-06T02:56:31;-0.40;99.90
20845;DHT22;10583;49.084;8.646;2023-04-06T02:58:58;-0.40;99.90
20845;DHT22;10583;49.084;8.646;2023-04-06T03:01:26;-0.40;99.90
20845;DHT22;10583;49.084;8.646;2023-04-06T03:03:52;-0.40;99.90
20845;DHT22;10583;49.084;8.646;2023-04-06T03:06:20;-0.40;99.90
20845;DHT22;10583;49.084;8.646;2023-04-06T03:08:47;-0.40;99.90
20845;DHT22;10583;49.084;8.646;2023-04-06T03:11:14;-0.40;99.90
20845;DHT22;10583;49.084;8.646;2023-04-06T03:13:40;-0.40;99.90
20845;DHT22;10583;49.084;8.646;2023-04-06T03:16:07;-0.50;99.90
20845;DHT22;10583;49.084;8.646;2023-04-06T03:18:33;-0.60;99.90
20845;DHT22;10583;49.084;8.646;2023-04-06T03:21:00;-0.70;99.90
20845;DHT22;10583;49.084;8.646;2023-04-06T03:23:28;-0.70;99.90
20845;DHT22;10583;49.084;8.646;2023-04-06T03:25:55;-0.60;99.90
20845;DHT22;10583;49.084;8.646;2023-04-06T03:28:21;-0.60;99.90
20845;DHT22;10583;49.084;8.646;2023-04-06T03:30:48;-0.50;99.90
20845;DHT22;10583;49.084;8.646;2023-04-06T03:33:15;-0.50;99.90
20845;DHT22;10583;49.084;8.646;2023-04-06T03:35:42;-0.50;99.90
20845;DHT22;10583;49.084;8.646;2023-04-06T03:38:08;-0.60;99.90
20845;DHT22;10583;49.084;8.646;2023-04-06T03:40:36;-0.70;99.90
20845;DHT22;10583;49.084;8.646;2023-04-06T03:43:04;-0.80;99.90
20845;DHT22;10583;49.084;8.646;2023-04-06T03:45:30;-0.90;99.90
20845;DHT22;10583;49.084;8.646;2023-04-06T03:47:57;-0.90;99.90
20845;DHT22;10583;49.084;8.646;2023-04-06T03:50:24;-0.80;99.90
20845;DHT22;10583;49.084;8.646;2023-04-06T03:52:51;-0.80;99.90
20845;DHT22;10583;49.084;8.646;2023-04-06T03:55:18;-0.70;99.90
20845;DHT22;10583;49.084;8.646;2023-04-06T03:57:46;-0.70;99.90
20845;DHT22;10583;49.084;8.646;2023-04-06T04:00:13;-0.70;99.90
20845;DHT22;10583;49.084;8.646;2023-04-06T04:02:40;-0.70;99.90
20845;DHT22;10583;49.084;8.646;2023-04-06T04:05:07;-0.70;99.90
20845;DHT22;10583;49.084;8.646;2023-04-06T04:07:34;-0.70;99.90
20845;DHT22;10583;49.084;8.646;2023-04-06T04:10:00;-0.70;99.90
20845;DHT22;10583;49.084;8.646;2023-04-06T04:12:27;-0.70;99.90
20845;DHT22;10583;49.084;8.646;2023-04-06T04:14:55;-0.70;99.90
20845;DHT22;10583;49.084;8.646;2023-04-06T04:17:22;-0.80;99.90
20845;DHT22;10583;49.084;8.646;2023-04-06T04:19:48;-0.90;99.90
20845;DHT22;10583;49.084;8.646;2023-04-06T04:22:15;-0.90;99.90
20845;DHT22;10583;49.084;8.646;2023-04-06T04:24:42;-1.00;99.90
20845;DHT22;10583;49.084;8.646;2023-04-06T04:27:08;-1.00;99.90
20845;DHT22;10583;49.084;8.646;2023-04-06T04:29:35;-1.10;99.90
20845;DHT22;10583;49.084;8.646;2023-04-06T04:32:04;-1.10;99.90
20845;DHT22;10583;49.084;8.646;2023-04-06T04:34:30;-1.00;99.90
20845;DHT22;10583;49.084;8.646;2023-04-06T04:36:58;-1.00;99.90
20845;DHT22;10583;49.084;8.646;2023-04-06T04:39:25;-1.00;99.90
20845;DHT22;10583;49.084;8.646;2023-04-06T04:41:51;-1.00;99.90
20845;DHT22;10583;49.084;8.646;2023-04-06T04:44:19;-1.00;99.90
20845;DHT22;10583;49.084;8.646;2023-04-06T04:46:45;-1.00;99.90
20845;DHT22;10583;49.084;8.646;2023-04-06T04:49:13;-1.00;99.90
20845;DHT22;10583;49.084;8.646;2023-04-06T04:51:40;-1.10;99.90
20845;DHT22;10583;49.084;8.646;2023-04-06T04:54:07;-1.10;99.90
20845;DHT22;10583;49.084;8.646;2023-04-06T04:56:33;-1.10;99.90
20845;DHT22;10583;49.084;8.646;2023-04-06T04:59:00;-1.10;99.90
20845;DHT22;10583;49.084;8.646;2023-04-06T05:01:27;-1.10;99.90
20845;DHT22;10583;49.084;8.646;2023-04-06T05:03:54;-1.10;99.90
20845;DHT22;10583;49.084;8.646;2023-04-06T05:06:22;-1.10;99.90
20845;DHT22;10583;49.084;8.646;2023-04-06T05:08:48;-1.10;99.90
20845;DHT22;10583;49.084;8.646;2023-04-06T05:11:15;-1.10;99.90
20845;DHT22;10583;49.084;8.646;2023-04-06T05:13:42;-1.10;99.90
20845;DHT22;10583;49.084;8.646;2023-04-06T05:16:09;-1.10;99.90
20845;DHT22;10583;49.084;8.646;2023-04-06T05:18:35;-1.10;99.90
20845;DHT22;10583;49.084;8.646;2023-04-06T05:21:02;-1.10;99.90
20845;DHT22;10583;49.084;8.646;2023-04-06T05:23:30;-1.10;99.90
20845;DHT22;10583;49.084;8.646;2023-04-06T05:25:57;-1.10;99.90
20845;DHT22;10583;49.084;8.646;2023-04-06T05:28:24;-1.00;99.90
20845;DHT22;10583;49.084;8.646;2023-04-06T05:30:51;-1.00;99.90
20845;DHT22;10583;49.084;8.646;2023-04-06T05:33:18;-0.90;99.90
20845;DHT22;10583;49.084;8.646;2023-04-06T05:35:44;-1.00;99.90
20845;DHT22;10583;49.084;8.646;2023-04-06T05:38:11;-0.90;99.90
20845;DHT22;10583;49.084;8.646;2023-04-06T05:40:39;-0.90;99.90
20845;DHT22;10583;49.084;8.646;2023-04-06T05:43:06;-0.80;99.90
20845;DHT22;10583;49.084;8.646;2023-04-06T05:45:33;-0.80;99.90
20845;DHT22;10583;49.084;8.646;2023-04-06T05:48:01;-0.70;99.90
20845;DHT22;10583;49.084;8.646;2023-04-06T05:50:27;-0.60;99.90
20845;DHT22;10583;49.084;8.646;2023-04-06T05:52:54;-0.50;99.90
20845;DHT22;10583;49.084;8.646;2023-04-06T05:55:21;-0.50;99.90
20845;DHT22;10583;49.084;8.646;2023-04-06T05:57:49;-0.30;99.90
20845;DHT22;10583;49.084;8.646;2023-04-06T06:00:16;-0.10;99.90
20845;DHT22;10583;49.084;8.646;2023-04-06T06:02:43;0.00;99.90
20845;DHT22;10583;49.084;8.646;2023-04-06T06:05:10;0.20;99.90
20845;DHT22;10583;49.084;8.646;2023-04-06T06:07:36;0.30;99.90
20845;DHT22;10583;49.084;8.646;2023-04-06T06:10:03;0.30;99.90
20845;DHT22;10583;49.084;8.646;2023-04-06T06:12:30;0.40;99.90
20845;DHT22;10583;49.084;8.646;2023-04-06T06:14:58;0.40;99.90
20845;DHT22;10583;49.084;8.646;2023-04-06T06:17:25;0.50;99.90
20845;DHT22;10583;49.084;8.646;2023-04-06T06:19:52;0.70;99.90
20845;DHT22;10583;49.084;8.646;2023-04-06T06:22:19;0.90;99.90
20845;DHT22;10583;49.084;8.646;2023-04-06T06:24:46;1.00;99.90
20845;DHT22;10583;49.084;8.646;2023-04-06T06:27:12;1.20;99.90
20845;DHT22;10583;49.084;8.646;2023-04-06T06:29:39;1.10;99.90
20845;DHT22;10583;49.084;8.646;2023-04-06T06:32:07;1.10;99.90
20845;DHT22;10583;49.084;8.646;2023-04-06T06:34:35;1.20;99.90
20845;DHT22;10583;49.084;8.646;2023-04-06T06:37:01;1.40;99.90
20845;DHT22;10583;49.084;8.646;2023-04-06T06:39:28;1.60;99.90
20845;DHT22;10583;49.084;8.646;2023-04-06T06:41:55;1.70;99.90
20845;DHT22;10583;49.084;8.646;2023-04-06T06:44:22;1.90;99.90
20845;DHT22;10583;49.084;8.646;2023-04-06T06:46:48;1.90;99.90
20845;DHT22;10583;49.084;8.646;2023-04-06T06:49:16;2.00;99.90
20845;DHT22;10583;49.084;8.646;2023-04-06T06:51:44;2.20;99.90
20845;DHT22;10583;49.084;8.646;2023-04-06T06:54:11;2.30;99.90
20845;DHT22;10583;49.084;8.646;2023-04-06T06:56:38;2.50;99.90
20845;DHT22;10583;49.084;8.646;2023-04-06T06:59:05;2.70;99.90
20845;DHT22;10583;49.084;8.646;2023-04-06T07:01:32;2.90;99.90
20845;DHT22;10583;49.084;8.646;2023-04-06T07:04:00;3.10;99.90
20845;DHT22;10583;49.084;8.646;2023-04-06T07:06:28;3.40;99.90
20845;DHT22;10583;49.084;8.646;2023-04-06T07:08:54;3.60;99.90
20845;DHT22;10583;49.084;8.646;2023-04-06T07:11:21;3.70;99.90
20845;DHT22;10583;49.084;8.646;2023-04-06T07:13:48;3.60;99.90
20845;DHT22;10583;49.084;8.646;2023-04-06T07:16:15;3.70;99.90
20845;DHT22;10583;49.084;8.646;2023-04-06T07:18:41;3.80;99.90
20845;DHT22;10583;49.084;8.646;2023-04-06T07:21:08;4.10;99.90
20845;DHT22;10583;49.084;8.646;2023-04-06T07:23:36;4.40;99.90
20845;DHT22;10583;49.084;8.646;2023-04-06T07:26:03;4.60;99.90
20845;DHT22;10583;49.084;8.646;2023-04-06T07:28:30;4.90;99.90
20845;DHT22;10583;49.084;8.646;2023-04-06T07:30:56;5.30;99.90
20845;DHT22;10583;49.084;8.646;2023-04-06T07:33:23;5.70;99.90
20845;DHT22;10583;49.084;8.646;2023-04-06T07:35:50;5.80;99.90
20845;DHT22;10583;49.084;8.646;2023-04-06T07:38:17;6.00;99.90
20845;DHT22;10583;49.084;8.646;2023-04-06T07:40:45;6.30;99.90
20845;DHT22;10583;49.084;8.646;2023-04-06T07:43:12;6.50;99.90
20845;DHT22;10583;49.084;8.646;2023-04-06T07:45:39;6.60;99.90
20845;DHT22;10583;49.084;8.646;2023-04-06T07:48:06;6.80;99.90
20845;DHT22;10583;49.084;8.646;2023-04-06T07:50:32;6.80;99.90
20845;DHT22;10583;49.084;8.646;2023-04-06T07:52:59;6.90;99.90
20845;DHT22;10583;49.084;8.646;2023-04-06T07:55:26;7.30;99.90
20845;DHT22;10583;49.084;8.646;2023-04-06T07:57:54;7.50;99.90
20845;DHT22;10583;49.084;8.646;2023-04-06T08:00:21;7.50;99.90
20845;DHT22;10583;49.084;8.646;2023-04-06T08:02:48;7.60;99.90
20845;DHT22;10583;49.084;8.646;2023-04-06T08:05:14;7.70;99.90
20845;DHT22;10583;49.084;8.646;2023-04-06T08:07:41;7.80;99.90
20845;DHT22;10583;49.084;8.646;2023-04-06T08:10:09;8.20;99.90
20845;DHT22;10583;49.084;8.646;2023-04-06T08:12:36;8.70;99.90
20845;DHT22;10583;49.084;8.646;2023-04-06T08:15:05;8.90;99.90
20845;DHT22;10583;49.084;8.646;2023-04-06T08:17:32;9.20;99.90
20845;DHT22;10583;49.084;8.646;2023-04-06T08:19:59;9.30;99.90
20845;DHT22;10583;49.084;8.646;2023-04-06T08:22:26;9.30;99.90
20845;DHT22;10583;49.084;8.646;2023-04-06T08:24:53;9.40;99.90
20845;DHT22;10583;49.084;8.646;2023-04-06T08:27:20;9.60;99.90
20845;DHT22;10583;49.084;8.646;2023-04-06T08:29:48;9.80;99.90
20845;DHT22;10583;49.084;8.646;2023-04-06T08:32:17;9.70;99.90
20845;DHT22;10583;49.084;8.646;2023-04-06T08:34:44;9.80;99.90
20845;DHT22;10583;49.084;8.646;2023-04-06T08:37:10;10.10;99.90
20845;DHT22;10583;49.084;8.646;2023-04-06T08:39:37;10.50;99.90
20845;DHT22;10583;49.084;8.646;2023-04-06T08:42:04;10.70;99.90
20845;DHT22;10583;49.084;8.646;2023-04-06T08:44:31;11.00;99.90
20845;DHT22;10583;49.084;8.646;2023-04-06T08:46:59;11.20;99.50
20845;DHT22;10583;49.084;8.646;2023-04-06T08:49:28;11.70;99.70
20845;DHT22;10583;49.084;8.646;2023-04-06T08:51:55;12.10;97.70
20845;DHT22;10583;49.084;8.646;2023-04-06T08:54:22;12.10;98.10
20845;DHT22;10583;49.084;8.646;2023-04-06T08:56:49;12.20;98.70
20845;DHT22;10583;49.084;8.646;2023-04-06T08:59:17;12.40;98.30
20845;DHT22;10583;49.084;8.646;2023-04-06T09:01:44;12.30;97.60
20845;DHT22;10583;49.084;8.646;2023-04-06T09:04:12;12.40;96.90
20845;DHT22;10583;49.084;8.646;2023-04-06T09:06:41;12.90;96.20
20845;DHT22;10583;49.084;8.646;2023-04-06T09:09:09;13.30;96.00
20845;DHT22;10583;49.084;8.646;2023-04-06T09:11:47;13.60;95.50
20845;DHT22;10583;49.084;8.646;2023-04-06T09:14:15;13.90;93.50
20845;DHT22;10583;49.084;8.646;2023-04-06T09:16:43;14.20;93.60
20845;DHT22;10583;49.084;8.646;2023-04-06T09:19:11;14.50;93.20
20845;DHT22;10583;49.084;8.646;2023-04-06T09:21:38;14.40;91.00
20845;DHT22;10583;49.084;8.646;2023-04-06T09:24:08;14.50;91.80
20845;DHT22;10583;49.084;8.646;2023-04-06T09:26:44;14.40;92.20
20845;DHT22;10583;49.084;8.646;2023-04-06T09:29:22;14.40;91.20
20845;DHT22;10583;49.084;8.646;2023-04-06T09:31:49;14.30;92.10
20845;DHT22;10583;49.084;8.646;2023-04-06T09:34:21;14.40;91.00
20845;DHT22;10583;49.084;8.646;2023-04-06T09:36:48;14.60;90.10
20845;DHT22;10583;49.084;8.646;2023-04-06T09:39:20;14.60;91.40
20845;DHT22;10583;49.084;8.646;2023-04-06T09:41:53;14.60;91.90
20845;DHT22;10583;49.084;8.646;2023-04-06T09:44:21;14.80;91.40
20845;DHT22;10583;49.084;8.646;2023-04-06T09:46:49;14.60;91.20
20845;DHT22;10583;49.084;8.646;2023-04-06T09:49:17;14.90;90.60
20845;DHT22;10583;49.084;8.646;2023-04-06T09:51:46;15.10;92.00
20845;DHT22;10583;49.084;8.646;2023-04-06T09:54:19;15.40;90.10
20845;DHT22;10583;49.084;8.646;2023-04-06T09:56:51;15.50;90.10
20845;DHT22;10583;49.084;8.646;2023-04-06T09:59:25;15.90;89.40
20845;DHT22;10583;49.084;8.646;2023-04-06T10:01:56;15.70;89.00
20845;DHT22;10583;49.084;8.646;2023-04-06T10:04:31;15.50;88.30
20845;DHT22;10583;49.084;8.646;2023-04-06T10:07:02;15.70;84.60
20845;DHT22;10583;49.084;8.646;2023-04-06T10:09:31;15.70;86.40
20845;DHT22;10583;49.084;8.646;2023-04-06T10:12:03;15.60;85.90
20845;DHT22;10583;49.084;8.646;2023-04-06T10:14:30;15.90;85.60
20845;DHT22;10583;49.084;8.646;2023-04-06T10:16:58;15.70;85.20
20845;DHT22;10583;49.084;8.646;2023-04-06T10:19:28;16.00;83.70
20845;DHT22;10583;49.084;8.646;2023-04-06T10:21:59;15.90;81.70
20845;DHT22;10583;49.084;8.646;2023-04-06T10:24:30;15.80;83.90
20845;DHT22;10583;49.084;8.646;2023-04-06T10:26:57;16.00;81.40
20845;DHT22;10583;49.084;8.646;2023-04-06T10:29:25;15.90;82.50
20845;DHT22;10583;49.084;8.646;2023-04-06T10:31:52;15.60;82.60
20845;DHT22;10583;49.084;8.646;2023-04-06T10:34:20;15.90;82.50
20845;DHT22;10583;49.084;8.646;2023-04-06T10:36:47;16.00;80.10
20845;DHT22;10583;49.084;8.646;2023-04-06T10:39:14;16.30;81.20
20845;DHT22;10583;49.084;8.646;2023-04-06T10:41:43;16.50;80.10
20845;DHT22;10583;49.084;8.646;2023-04-06T10:44:17;16.80;81.10
20845;DHT22;10583;49.084;8.646;2023-04-06T10:46:52;16.80;76.90
20845;DHT22;10583;49.084;8.646;2023-04-06T10:49:20;17.00;79.20
20845;DHT22;10583;49.084;8.646;2023-04-06T10:51:51;16.90;79.60
20845;DHT22;10583;49.084;8.646;2023-04-06T10:54:21;17.20;82.60
20845;DHT22;10583;49.084;8.646;2023-04-06T10:56:49;17.00;81.90
20845;DHT22;10583;49.084;8.646;2023-04-06T10:59:18;17.30;76.40
20845;DHT22;10583;49.084;8.646;2023-04-06T11:01:46;17.00;81.40
20845;DHT22;10583;49.084;8.646;2023-04-06T11:04:15;16.90;78.00
20845;DHT22;10583;49.084;8.646;2023-04-06T11:06:46;16.70;77.70
20845;DHT22;10583;49.084;8.646;2023-04-06T11:09:23;16.80;75.70
20845;DHT22;10583;49.084;8.646;2023-04-06T11:11:53;16.80;78.60
20845;DHT22;10583;49.084;8.646;2023-04-06T11:14:20;16.70;81.30
20845;DHT22;10583;49.084;8.646;2023-04-06T11:16:48;16.50;79.10
20845;DHT22;10583;49.084;8.646;2023-04-06T11:19:15;16.40;77.30
20845;DHT22;10583;49.084;8.646;2023-04-06T11:21:43;16.50;79.90
20845;DHT22;10583;49.084;8.646;2023-04-06T11:24:14;16.30;78.70
20845;DHT22;10583;49.084;8.646;2023-04-06T11:26:43;16.90;77.10
20845;DHT22;10583;49.084;8.646;2023-04-06T11:29:13;17.00;75.70
20845;DHT22;10583;49.084;8.646;2023-04-06T11:31:41;17.20;77.60
20845;DHT22;10583;49.084;8.646;2023-04-06T11:34:12;17.10;80.00
20845;DHT22;10583;49.084;8.646;2023-04-06T11:36:43;17.40;76.60
20845;DHT22;10583;49.084;8.646;2023-04-06T11:39:11;17.20;75.90
20845;DHT22;10583;49.084;8.646;2023-04-06T11:41:37;17.20;75.30
20845;DHT22;10583;49.084;8.646;2023-04-06T11:44:08;17.20;75.60
20845;DHT22;10583;49.084;8.646;2023-04-06T11:46:36;17.70;73.50
20845;DHT22;10583;49.084;8.646;2023-04-06T11:49:03;17.60;74.20
20845;DHT22;10583;49.084;8.646;2023-04-06T11:51:30;18.00;73.90
20845;DHT22;10583;49.084;8.646;2023-04-06T11:53:56;18.20;76.50
20845;DHT22;10583;49.084;8.646;2023-04-06T11:56:25;18.40;74.90
20845;DHT22;10583;49.084;8.646;2023-04-06T11:58:52;18.00;74.50
20845;DHT22;10583;49.084;8.646;2023-04-06T12:01:19;17.50;72.80
20845;DHT22;10583;49.084;8.646;2023-04-06T12:03:47;17.00;75.30
20845;DHT22;10583;49.084;8.646;2023-04-06T12:06:14;17.10;75.50
20845;DHT22;10583;49.084;8.646;2023-04-06T12:08:41;17.10;76.00
20845;DHT22;10583;49.084;8.646;2023-04-06T12:11:08;17.40;74.80
20845;DHT22;10583;49.084;8.646;2023-04-06T12:13:35;17.70;73.20
20845;DHT22;10583;49.084;8.646;2023-04-06T12:16:02;17.50;75.10
20845;DHT22;10583;49.084;8.646;2023-04-06T12:18:30;17.70;75.90
20845;DHT22;10583;49.084;8.646;2023-04-06T12:20:58;17.90;75.70
20845;DHT22;10583;49.084;8.646;2023-04-06T12:23:25;17.30;75.50
20845;DHT22;10583;49.084;8.646;2023-04-06T12:25:52;17.10;75.70
20845;DHT22;10583;49.084;8.646;2023-04-06T12:28:20;17.50;74.70
20845;DHT22;10583;49.084;8.646;2023-04-06T12:30:48;16.90;77.20
20845;DHT22;10583;49.084;8.646;2023-04-06T12:33:15;16.80;76.30
20845;DHT22;10583;49.084;8.646;2023-04-06T12:35:42;16.60;75.20
20845;DHT22;10583;49.084;8.646;2023-04-06T12:38:10;16.30;75.90
20845;DHT22;10583;49.084;8.646;2023-04-06T12:40:37;16.20;76.00
20845;DHT22;10583;49.084;8.646;2023-04-06T12:43:05;16.50;78.00
20845;DHT22;10583;49.084;8.646;2023-04-06T12:45:32;16.80;77.30
20845;DHT22;10583;49.084;8.646;2023-04-06T12:47:59;16.40;73.10
20845;DHT22;10583;49.084;8.646;2023-04-06T12:50:26;16.20;74.60
20845;DHT22;10583;49.084;8.646;2023-04-06T12:52:53;16.40;75.40
20845;DHT22;10583;49.084;8.646;2023-04-06T12:55:21;16.60;76.20
20845;DHT22;10583;49.084;8.646;2023-04-06T12:57:48;16.60;73.30
20845;DHT22;10583;49.084;8.646;2023-04-06T13:00:15;16.20;74.90
20845;DHT22;10583;49.084;8.646;2023-04-06T13:02:42;16.20;78.60
20845;DHT22;10583;49.084;8.646;2023-04-06T13:05:13;16.60;78.80
20845;DHT22;10583;49.084;8.646;2023-04-06T13:07:44;17.20;77.10
20845;DHT22;10583;49.084;8.646;2023-04-06T13:10:10;17.40;74.60
20845;DHT22;10583;49.084;8.646;2023-04-06T13:12:39;17.60;75.80
20845;DHT22;10583;49.084;8.646;2023-04-06T13:15:06;17.60;75.80
20845;DHT22;10583;49.084;8.646;2023-04-06T13:17:34;17.80;74.00
20845;DHT22;10583;49.084;8.646;2023-04-06T13:20:00;17.40;74.80
20845;DHT22;10583;49.084;8.646;2023-04-06T13:22:29;16.80;74.60
20845;DHT22;10583;49.084;8.646;2023-04-06T13:24:55;16.80;74.80
20845;DHT22;10583;49.084;8.646;2023-04-06T13:27:22;16.70;73.20
20845;DHT22;10583;49.084;8.646;2023-04-06T13:29:50;16.30;74.90
20845;DHT22;10583;49.084;8.646;2023-04-06T13:32:17;16.10;74.10
20845;DHT22;10583;49.084;8.646;2023-04-06T13:34:43;15.70;73.30
20845;DHT22;10583;49.084;8.646;2023-04-06T13:37:11;15.40;74.80
20845;DHT22;10583;49.084;8.646;2023-04-06T13:39:38;15.50;77.00
20845;DHT22;10583;49.084;8.646;2023-04-06T13:42:05;15.80;73.80
20845;DHT22;10583;49.084;8.646;2023-04-06T13:44:32;15.90;73.40
20845;DHT22;10583;49.084;8.646;2023-04-06T13:47:00;15.90;74.40
20845;DHT22;10583;49.084;8.646;2023-04-06T13:49:27;15.70;74.20
20845;DHT22;10583;49.084;8.646;2023-04-06T13:51:54;15.70;75.00
20845;DHT22;10583;49.084;8.646;2023-04-06T13:54:21;15.60;74.90
20845;DHT22;10583;49.084;8.646;2023-04-06T13:56:48;15.50;75.60
20845;DHT22;10583;49.084;8.646;2023-04-06T13:59:14;15.30;76.20
20845;DHT22;10583;49.084;8.646;2023-04-06T14:01:41;15.20;76.30
20845;DHT22;10583;49.084;8.646;2023-04-06T14:04:09;15.10;77.50
20845;DHT22;10583;49.084;8.646;2023-04-06T14:06:37;15.00;76.40
20845;DHT22;10583;49.084;8.646;2023-04-06T14:09:04;14.90;75.50
20845;DHT22;10583;49.084;8.646;2023-04-06T14:11:32;14.60;75.70
20845;DHT22;10583;49.084;8.646;2023-04-06T14:13:59;14.50;74.10
20845;DHT22;10583;49.084;8.646;2023-04-06T14:16:26;14.60;75.80
20845;DHT22;10583;49.084;8.646;2023-04-06T14:18:53;14.50;77.20
20845;DHT22;10583;49.084;8.646;2023-04-06T14:21:21;14.30;77.60
20845;DHT22;10583;49.084;8.646;2023-04-06T14:23:48;14.40;78.00
20845;DHT22;10583;49.084;8.646;2023-04-06T14:26:15;14.60;76.90
20845;DHT22;10583;49.084;8.646;2023-04-06T14:28:42;14.70;74.60
20845;DHT22;10583;49.084;8.646;2023-04-06T14:31:13;14.80;74.30
20845;DHT22;10583;49.084;8.646;2023-04-06T14:33:42;14.70;77.80
20845;DHT22;10583;49.084;8.646;2023-04-06T14:36:09;14.60;74.30
20845;DHT22;10583;49.084;8.646;2023-04-06T14:38:37;14.50;73.30
20845;DHT22;10583;49.084;8.646;2023-04-06T14:41:05;14.50;72.00
20845;DHT22;10583;49.084;8.646;2023-04-06T14:43:32;14.40;70.80
20845;DHT22;10583;49.084;8.646;2023-04-06T14:46:00;14.50;71.50
20845;DHT22;10583;49.084;8.646;2023-04-06T14:48:27;14.60;72.20
20845;DHT22;10583;49.084;8.646;2023-04-06T14:50:54;14.60;70.70
20845;DHT22;10583;49.084;8.646;2023-04-06T14:53:21;14.50;70.70
20845;DHT22;10583;49.084;8.646;2023-04-06T14:55:49;14.50;70.50
20845;DHT22;10583;49.084;8.646;2023-04-06T14:58:16;14.50;71.40
20845;DHT22;10583;49.084;8.646;2023-04-06T15:00:43;14.50;70.40
20845;DHT22;10583;49.084;8.646;2023-04-06T15:03:10;14.60;70.30
20845;DHT22;10583;49.084;8.646;2023-04-06T15:05:37;14.70;71.90
20845;DHT22;10583;49.084;8.646;2023-04-06T15:08:04;14.70;70.40
20845;DHT22;10583;49.084;8.646;2023-04-06T15:10:31;14.70;71.20
20845;DHT22;10583;49.084;8.646;2023-04-06T15:12:59;14.70;70.50
20845;DHT22;10583;49.084;8.646;2023-04-06T15:15:26;14.60;70.20
20845;DHT22;10583;49.084;8.646;2023-04-06T15:17:53;14.50;70.30
20845;DHT22;10583;49.084;8.646;2023-04-06T15:20:20;14.40;70.80
20845;DHT22;10583;49.084;8.646;2023-04-06T15:22:46;14.30;72.60
20845;DHT22;10583;49.084;8.646;2023-04-06T15:25:13;14.30;72.20
20845;DHT22;10583;49.084;8.646;2023-04-06T15:27:40;14.40;72.40
20845;DHT22;10583;49.084;8.646;2023-04-06T15:30:08;14.40;71.10
20845;DHT22;10583;49.084;8.646;2023-04-06T15:32:35;14.30;72.50
20845;DHT22;10583;49.084;8.646;2023-04-06T15:35:09;14.10;73.10